Terminal Aerodrome Forecast
Issued by NWS

Home | Current Version | Previous Version | Text Only | Print | Product List | Glossary On
Versions: 1 2 3 4 5 6 7 8 9 10 11 12 13 14
000
FTUS42 TJSJ 310500 RRA
TAFJBQ
TAF
TJBQ 310549Z 3106/0106 VRB04KT P6SM SCT060
     FM311630 30010KT P6SM VCTS SCT030CB SCT050
     FM312200 VRB06KT P6SM SCT030
      AMD NOT SKED TIL 311100=

USA.gov is the U.S. government's official web portal to all federal, state and local government web resources and services.